createdAt,value
2022-10-20T00:01:45.051Z,9.03
2022-10-20T00:06:47.117Z,8.99
2022-10-20T00:11:49.106Z,8.98
2022-10-20T00:16:50.878Z,8.96
2022-10-20T00:21:52.651Z,8.93
2022-10-20T00:26:54.473Z,8.90
2022-10-20T00:31:56.519Z,8.88
2022-10-20T00:36:58.484Z,8.87
2022-10-20T00:42:03.462Z,8.84
2022-10-20T00:47:05.308Z,8.80
2022-10-20T00:52:08.222Z,8.69
2022-10-20T00:57:10.202Z,8.64
2022-10-20T01:02:12.310Z,8.69
2022-10-20T01:07:14.320Z,8.73
2022-10-20T01:12:28.344Z,8.75
2022-10-20T01:17:57.456Z,8.74
2022-10-20T01:23:11.585Z,8.70
2022-10-20T01:28:22.650Z,8.69
2022-10-20T01:33:31.455Z,8.63
2022-10-20T01:38:41.316Z,8.60
2022-10-20T01:43:46.505Z,8.55
2022-10-20T01:48:50.506Z,8.56
2022-10-20T01:53:52.521Z,8.54
2022-10-20T01:59:06.125Z,8.49
2022-10-20T02:04:09.844Z,8.46
2022-10-20T02:09:24.127Z,8.43
2022-10-20T02:14:27.159Z,8.37
2022-10-20T02:19:34.126Z,8.29
2022-10-20T02:24:39.644Z,8.25
2022-10-20T02:29:59.625Z,8.17
2022-10-20T02:35:07.803Z,8.05
2022-10-20T02:40:11.652Z,7.93
2022-10-20T02:45:13.671Z,7.85
2022-10-20T02:50:17.176Z,7.84
2022-10-20T03:00:29.577Z,7.83
2022-10-20T03:05:31.349Z,7.82
2022-10-20T03:10:33.434Z,7.79
2022-10-20T03:15:35.499Z,7.76
2022-10-20T03:20:37.403Z,7.78
2022-10-20T03:25:39.237Z,7.83
2022-10-20T03:30:41.206Z,7.86
2022-10-20T03:35:43.017Z,7.83
2022-10-20T03:40:44.945Z,7.83
2022-10-20T03:45:46.742Z,7.87
2022-10-20T03:50:48.527Z,7.91
2022-10-20T03:55:50.350Z,7.89
2022-10-20T04:00:52.487Z,7.87
2022-10-20T04:05:54.365Z,7.88
2022-10-20T04:10:56.417Z,7.90
2022-10-20T04:15:58.513Z,7.90
2022-10-20T04:21:00.448Z,7.87
2022-10-20T04:26:09.501Z,7.87
2022-10-20T04:31:11.566Z,7.88
2022-10-20T04:36:13.781Z,7.87
2022-10-20T04:41:15.686Z,7.85
2022-10-20T04:46:17.725Z,7.84
2022-10-20T04:51:19.885Z,7.82
2022-10-20T04:56:22.341Z,7.78
2022-10-20T05:01:27.013Z,7.75
2022-10-20T05:06:31.079Z,7.70
2022-10-20T05:11:37.365Z,7.67
2022-10-20T05:16:39.321Z,7.64
2022-10-20T05:26:48.469Z,7.58
2022-10-20T05:31:50.281Z,7.56
2022-10-20T05:36:54.905Z,7.52
2022-10-20T05:41:56.695Z,7.51
2022-10-20T05:46:58.484Z,7.49
2022-10-20T05:52:00.819Z,7.50
2022-10-20T05:57:02.633Z,7.53
2022-10-20T06:02:04.542Z,7.56
2022-10-20T06:07:06.434Z,7.62
2022-10-20T06:17:15.693Z,7.78
2022-10-20T06:22:17.553Z,7.85
2022-10-20T06:27:19.335Z,7.90
2022-10-20T06:32:21.192Z,7.97
2022-10-20T06:37:22.968Z,8.09
2022-10-20T06:42:24.852Z,8.24
2022-10-20T06:47:30.950Z,8.37
2022-10-20T06:52:32.737Z,8.50
2022-10-20T06:57:34.627Z,8.65
2022-10-20T07:02:39.824Z,8.75
2022-10-20T07:07:42.222Z,8.76
2022-10-20T07:12:44.146Z,8.82
2022-10-20T07:17:46.402Z,8.89
2022-10-20T07:22:48.306Z,8.92
2022-10-20T07:27:50.103Z,8.96
2022-10-20T07:32:52.559Z,9.05
2022-10-20T07:37:54.355Z,9.16
2022-10-20T07:42:56.225Z,9.33
2022-10-20T07:47:59.583Z,9.57
2022-10-20T07:53:01.850Z,9.82
2022-10-20T07:58:03.817Z,10.03
2022-10-20T08:03:05.994Z,10.20
2022-10-20T08:08:08.352Z,10.36
2022-10-20T08:13:10.212Z,10.55
2022-10-20T08:18:15.364Z,10.69
2022-10-20T08:23:17.403Z,10.83
2022-10-20T08:28:22.214Z,10.94
2022-10-20T08:33:27.298Z,11.01
2022-10-20T08:38:29.136Z,11.09
2022-10-20T08:43:32.534Z,11.17
2022-10-20T08:48:34.997Z,11.24
2022-10-20T08:53:40.405Z,11.34
2022-10-20T08:58:45.011Z,11.46
2022-10-20T09:03:51.453Z,11.55
2022-10-20T09:08:55.120Z,11.68
2022-10-20T09:13:57.310Z,11.79
2022-10-20T09:19:01.893Z,11.87
2022-10-20T09:24:06.476Z,11.90
2022-10-20T09:29:17.842Z,12.01
2022-10-20T09:34:34.364Z,12.04
2022-10-20T09:39:58.459Z,12.12
2022-10-20T09:45:17.880Z,12.17
2022-10-20T09:50:27.034Z,12.26
2022-10-20T09:55:48.176Z,12.32
2022-10-20T10:00:58.228Z,12.41
2022-10-20T10:06:01.022Z,12.46
2022-10-20T10:11:16.550Z,12.51
2022-10-20T10:16:24.946Z,12.55
2022-10-20T10:21:28.210Z,12.62
2022-10-20T10:26:52.127Z,12.70
2022-10-20T10:31:58.746Z,12.73
2022-10-20T10:37:00.887Z,12.77
2022-10-20T10:42:30.522Z,12.83
2022-10-20T10:47:40.273Z,12.87
2022-10-20T10:53:00.893Z,12.92
2022-10-20T11:03:37.729Z,13.00
2022-10-20T11:09:03.547Z,13.04
2022-10-20T11:14:28.208Z,13.09
2022-10-20T11:20:03.455Z,13.16
2022-10-20T11:25:22.356Z,13.17
2022-10-20T11:30:27.788Z,13.14
2022-10-20T11:35:30.088Z,13.13
2022-10-20T11:40:39.495Z,13.14
2022-10-20T11:45:50.689Z,13.15
2022-10-20T11:51:28.403Z,13.15
2022-10-20T11:56:41.910Z,13.19
2022-10-20T12:02:02.325Z,13.19
2022-10-20T12:07:29.055Z,13.17
2022-10-20T12:12:53.269Z,13.19
2022-10-20T12:18:05.681Z,13.18
2022-10-20T12:23:42.831Z,13.19
2022-10-20T12:28:44.699Z,13.15
2022-10-20T12:33:49.947Z,13.15
2022-10-20T12:39:06.784Z,13.14
2022-10-20T12:44:17.665Z,13.10
2022-10-20T12:49:28.524Z,13.04
2022-10-20T12:54:41.907Z,13.00
2022-10-20T12:59:47.405Z,12.94
2022-10-20T13:04:54.271Z,12.90
2022-10-20T13:09:59.037Z,12.89
2022-10-20T13:15:13.201Z,12.85
2022-10-20T13:20:25.607Z,12.84
2022-10-20T13:25:45.165Z,12.80
2022-10-20T13:30:53.228Z,12.76
2022-10-20T13:36:16.335Z,12.72
2022-10-20T13:41:47.954Z,12.64
2022-10-20T13:47:10.298Z,12.59
2022-10-20T13:52:16.141Z,12.52
2022-10-20T13:57:29.255Z,12.52
2022-10-20T14:02:36.769Z,12.51
2022-10-20T14:07:42.792Z,12.53
2022-10-20T14:12:45.000Z,12.49
2022-10-20T14:17:58.461Z,12.45
2022-10-20T14:23:03.221Z,12.40
2022-10-20T14:28:07.499Z,12.38
2022-10-20T14:33:16.232Z,12.33
2022-10-20T14:38:24.670Z,12.32
2022-10-20T14:43:39.451Z,12.29
2022-10-20T14:48:47.473Z,12.25
2022-10-20T14:53:49.572Z,12.21
2022-10-20T14:59:00.806Z,12.17
2022-10-20T15:04:17.369Z,12.12
2022-10-20T15:09:32.099Z,12.07
2022-10-20T15:14:34.790Z,12.01
2022-10-20T15:19:37.514Z,11.96
2022-10-20T15:24:40.241Z,11.90
2022-10-20T15:29:51.335Z,11.87
2022-10-20T15:34:53.272Z,11.82
2022-10-20T15:39:55.173Z,11.75
2022-10-20T15:44:57.083Z,11.67
2022-10-20T15:49:59.071Z,11.62
2022-10-20T15:55:01.102Z,11.55
2022-10-20T16:00:03.604Z,11.50
2022-10-20T16:05:07.549Z,11.45
2022-10-20T16:10:11.589Z,11.38
2022-10-20T16:15:13.492Z,11.31
2022-10-20T16:20:15.916Z,11.25
2022-10-20T16:25:18.122Z,11.23
2022-10-20T16:30:20.066Z,11.19
2022-10-20T16:35:22.827Z,11.14
2022-10-20T16:40:25.127Z,11.11
2022-10-20T16:45:28.012Z,11.09
2022-10-20T16:50:30.304Z,11.09
2022-10-20T16:55:32.095Z,11.08
2022-10-20T17:00:34.085Z,11.09
2022-10-20T17:05:36.231Z,11.07
2022-10-20T17:10:38.761Z,11.07
2022-10-20T17:15:40.921Z,11.06
2022-10-20T17:20:46.063Z,11.06
2022-10-20T17:25:48.169Z,11.06
2022-10-20T17:30:53.351Z,11.07
2022-10-20T17:35:57.377Z,11.08
2022-10-20T17:41:07.228Z,11.08
2022-10-20T17:46:13.577Z,11.08
2022-10-20T17:51:21.577Z,11.10
2022-10-20T17:56:29.658Z,11.11
2022-10-20T18:01:38.164Z,11.11
2022-10-20T18:06:42.290Z,11.12
2022-10-20T18:11:47.927Z,11.14
2022-10-20T18:16:50.278Z,11.14
2022-10-20T18:21:52.213Z,11.14
2022-10-20T18:26:54.113Z,11.15
2022-10-20T18:31:56.532Z,11.14
2022-10-20T18:36:58.864Z,11.15
2022-10-20T18:42:00.685Z,11.16
2022-10-20T18:47:02.626Z,11.17
2022-10-20T18:52:04.576Z,11.19
2022-10-20T18:57:06.415Z,11.20
2022-10-20T19:02:10.557Z,11.21
2022-10-20T19:07:12.379Z,11.21
2022-10-20T19:12:14.265Z,11.20
2022-10-20T19:17:16.082Z,11.20
2022-10-20T19:22:18.199Z,11.21
2022-10-20T19:27:26.647Z,11.22
2022-10-20T19:32:29.589Z,11.22
2022-10-20T19:37:31.449Z,11.20
2022-10-20T19:42:33.365Z,11.18
2022-10-20T19:47:35.311Z,11.17
2022-10-20T19:52:37.408Z,11.18
2022-10-20T19:57:40.986Z,11.16
2022-10-20T20:02:43.544Z,11.17
2022-10-20T20:07:45.589Z,11.18
2022-10-20T20:12:48.027Z,11.22
2022-10-20T20:17:49.766Z,11.22
2022-10-20T20:22:51.526Z,11.24
2022-10-20T20:27:54.002Z,11.23
2022-10-20T20:32:55.706Z,11.25
2022-10-20T20:37:57.440Z,11.30
2022-10-20T20:42:59.233Z,11.33
2022-10-20T20:48:01.114Z,11.31
2022-10-20T20:53:02.976Z,11.32
2022-10-20T20:58:04.879Z,11.34
2022-10-20T21:03:06.735Z,11.37
2022-10-20T21:08:08.639Z,11.38
2022-10-20T21:13:10.411Z,11.39
2022-10-20T21:18:12.308Z,11.37
2022-10-20T21:23:14.093Z,11.41
2022-10-20T21:28:15.916Z,11.46
2022-10-20T21:33:17.745Z,11.49
2022-10-20T21:38:19.484Z,11.52
2022-10-20T21:43:21.358Z,11.56
2022-10-20T21:48:23.246Z,11.61
2022-10-20T21:53:24.973Z,11.63
2022-10-20T21:58:26.725Z,11.62
2022-10-20T22:03:29.050Z,11.62
2022-10-20T22:08:30.910Z,11.63
2022-10-20T22:13:33.731Z,11.62
2022-10-20T22:18:35.964Z,11.61
2022-10-20T22:23:38.047Z,11.61
2022-10-20T22:28:40.355Z,11.62
2022-10-20T22:33:42.154Z,11.62
2022-10-20T22:38:44.073Z,11.61
2022-10-20T22:43:46.187Z,11.61
2022-10-20T22:48:48.080Z,11.58
2022-10-20T22:53:49.855Z,11.55
2022-10-20T22:58:53.482Z,11.50
2022-10-20T23:03:55.321Z,11.47
2022-10-20T23:08:57.157Z,11.42
2022-10-20T23:13:58.970Z,11.37
2022-10-20T23:19:00.847Z,11.34
2022-10-20T23:24:02.709Z,11.35
2022-10-20T23:29:04.367Z,11.33
2022-10-20T23:34:06.120Z,11.31
2022-10-20T23:39:07.933Z,11.30
2022-10-20T23:44:09.782Z,11.34
2022-10-20T23:49:11.547Z,11.36
2022-10-20T23:54:13.413Z,11.36
2022-10-20T23:59:15.409Z,11.37
